Terminal Aerodrome Forecast
Issued by NWS North Platte, NE

Home | Current Version | Previous Version | Text Only | Print | Product List | Glossary On
Versions: 1 2 3 4 5 6 7 8 9 10 11 12 13 14
000
FTUS43 KLBF 302300
TAFVTN
TAF
KVTN 302325Z 0100/0124 11010KT P6SM VCTS BKN120CB
     FM010300 11005KT P6SM SCT120
     FM011200 31008KT P6SM SKC
     FM011900 33012KT P6SM SKC=

USA.gov is the U.S. government's official web portal to all federal, state and local government web resources and services.